Time;durP1;ratioP1;P1;durP2;ratioP2;P2;SDS_P1;SDS_P2;PMS_P1;PMS_P2;Temp;Humidity;BMP_temperature;BMP_pressure;BME280_temperature;BME280_humidity;BME280_pressure;Samples;Min_cycle;Max_cycle;Signal;HPM_P1;HPM_P2
2024/03/12 00:00:23;;;;;;;25.17;8.10;;;8.70;99.90;;;;;;4978515;28;20195;-86
2024/03/12 00:02:50;;;;;;;20.95;7.72;;;8.70;99.90;;;;;;4978718;28;20151;-86
2024/03/12 00:05:20;;;;;;;25.25;8.25;;;8.80;99.90;;;;;;4978306;28;20183;-86
2024/03/12 00:07:47;;;;;;;30.38;9.20;;;8.80;99.90;;;;;;4976490;28;20180;-86
2024/03/12 00:10:16;;;;;;;26.85;9.98;;;8.70;99.90;;;;;;4978564;28;20650;-85
2024/03/12 00:12:49;;;;;;;28.30;10.60;;;8.80;99.90;;;;;;4978969;28;20652;-85
2024/03/12 00:15:17;;;;;;;29.50;11.02;;;8.70;99.90;;;;;;4979660;28;20196;-86
2024/03/12 00:17:46;;;;;;;27.95;10.10;;;8.70;99.90;;;;;;4978838;28;20246;-85
2024/03/12 00:20:24;;;;;;;29.52;8.65;;;8.70;99.90;;;;;;4978598;28;20191;-85
2024/03/12 00:22:50;;;;;;;29.88;11.23;;;8.70;99.90;;;;;;4977890;28;20522;-85
2024/03/12 00:25:19;;;;;;;28.92;11.10;;;8.70;99.90;;;;;;4977957;28;20541;-86
2024/03/12 00:27:46;;;;;;;32.60;10.20;;;8.70;99.90;;;;;;4978919;28;20172;-86
2024/03/12 00:30:13;;;;;;;30.65;11.70;;;8.80;99.90;;;;;;4978816;28;20214;-86
2024/03/12 00:32:43;;;;;;;29.85;12.30;;;8.80;99.90;;;;;;4979808;28;20175;-86
2024/03/12 00:35:12;;;;;;;32.85;11.35;;;8.70;99.90;;;;;;4979257;28;20160;-86
2024/03/12 00:37:41;;;;;;;33.97;12.60;;;8.70;99.90;;;;;;4979086;28;20633;-86
2024/03/12 00:40:12;;;;;;;31.48;12.15;;;8.70;99.90;;;;;;4977897;28;20637;-86
2024/03/12 00:42:39;;;;;;;32.47;14.20;;;8.70;99.90;;;;;;4979003;28;20215;-86
2024/03/12 00:45:07;;;;;;;32.15;12.65;;;8.70;99.90;;;;;;4978006;28;20836;-86
2024/03/12 00:47:33;;;;;;;41.65;13.77;;;8.70;99.90;;;;;;4962725;28;20180;-86
2024/03/12 00:50:00;;;;;;;34.47;14.10;;;8.70;99.90;;;;;;4979318;28;20222;-86
2024/03/12 00:52:26;;;;;;;31.27;11.73;;;8.70;99.90;;;;;;4978151;28;20164;-86
2024/03/12 00:54:52;;;;;;;42.87;15.90;;;8.70;99.90;;;;;;4962285;28;20218;-86
2024/03/12 00:57:17;;;;;;;38.00;14.77;;;8.70;99.90;;;;;;4977178;28;20410;-86
2024/03/12 00:59:43;;;;;;;37.97;16.23;;;8.80;99.90;;;;;;4978543;28;20214;-86
2024/03/12 01:02:10;;;;;;;39.83;15.90;;;8.70;99.90;;;;;;4978393;28;20192;-85
2024/03/12 01:04:38;;;;;;;44.70;16.73;;;8.80;99.90;;;;;;4977896;28;20187;-85
2024/03/12 01:07:07;;;;;;;41.17;17.98;;;8.70;99.90;;;;;;4960708;28;20200;-86
2024/03/12 01:09:39;;;;;;;41.33;16.13;;;8.80;99.90;;;;;;4978077;28;20533;-85
2024/03/12 01:12:07;;;;;;;43.10;18.17;;;8.70;99.90;;;;;;4978101;28;20558;-86
2024/03/12 01:14:34;;;;;;;43.17;15.30;;;8.70;99.90;;;;;;4978111;28;20168;-86
2024/03/12 01:16:59;;;;;;;36.15;15.50;;;8.70;99.90;;;;;;4978215;28;20160;-85
2024/03/12 01:19:26;;;;;;;40.83;16.50;;;8.70;99.90;;;;;;4977871;28;20168;-85
2024/03/12 01:21:53;;;;;;;35.63;14.90;;;8.70;99.90;;;;;;4976897;28;20238;-85
2024/03/12 01:24:19;;;;;;;39.50;15.95;;;8.70;99.90;;;;;;4977549;28;20188;-86
2024/03/12 01:26:44;;;;;;;51.53;17.23;;;8.80;99.90;;;;;;4977752;28;20156;-86
2024/03/12 01:29:10;;;;;;;47.73;17.90;;;8.70;99.90;;;;;;4977808;28;20630;-86
2024/03/12 01:31:35;;;;;;;37.80;16.57;;;8.70;99.90;;;;;;4977302;28;20227;-86
2024/03/12 01:34:01;;;;;;;32.07;15.20;;;8.80;99.90;;;;;;4977550;28;20160;-86
2024/03/12 01:36:34;;;;;;;41.20;15.60;;;8.80;99.90;;;;;;4976889;28;20168;-86
2024/03/12 01:39:07;;;;;;;37.42;15.57;;;8.80;99.90;;;;;;4977348;28;20159;-86
2024/03/12 01:41:34;;;;;;;33.85;15.18;;;8.80;99.90;;;;;;4977517;28;20678;-86
2024/03/12 01:44:03;;;;;;;38.38;16.35;;;8.80;99.90;;;;;;4977837;28;20196;-86
2024/03/12 01:46:31;;;;;;;38.83;15.15;;;8.80;99.90;;;;;;4976020;28;20206;-86
2024/03/12 01:49:00;;;;;;;40.67;16.00;;;8.80;99.90;;;;;;4976544;28;20178;-86
2024/03/12 01:51:29;;;;;;;42.08;17.55;;;8.90;99.90;;;;;;4976058;28;20294;-86
2024/03/12 01:53:56;;;;;;;42.80;17.25;;;8.90;99.90;;;;;;4959931;28;20204;-86
2024/03/12 01:56:24;;;;;;;43.00;17.50;;;8.90;99.90;;;;;;4977079;28;20164;-86
2024/03/12 01:58:50;;;;;;;39.17;15.50;;;8.90;99.90;;;;;;4975568;28;20175;-87
2024/03/12 02:01:19;;;;;;;35.97;15.68;;;8.80;99.90;;;;;;4975240;28;20192;-86
2024/03/12 02:03:51;;;;;;;40.38;15.63;;;8.80;99.90;;;;;;4977448;28;20174;-86
2024/03/12 02:06:19;;;;;;;41.30;17.55;;;8.80;99.90;;;;;;4975221;28;20168;-86
2024/03/12 02:08:46;;;;;;;48.25;18.98;;;8.80;99.90;;;;;;4976249;28;20168;-86
2024/03/12 02:11:12;;;;;;;44.42;16.83;;;8.80;99.90;;;;;;4974684;28;20211;-86
2024/03/12 02:13:38;;;;;;;42.20;16.67;;;8.80;99.90;;;;;;4976180;28;20172;-86
2024/03/12 02:16:05;;;;;;;47.53;18.75;;;8.80;99.90;;;;;;4976521;28;20156;-86
2024/03/12 02:18:32;;;;;;;55.63;18.73;;;8.80;99.90;;;;;;4976338;28;20574;-86
2024/03/12 02:20:58;;;;;;;46.20;17.52;;;8.80;99.90;;;;;;4975107;28;20191;-87
2024/03/12 02:23:41;;;;;;;41.87;17.50;;;8.80;99.90;;;;;;4959314;28;20175;-86
2024/03/12 02:26:09;;;;;;;39.33;16.95;;;8.80;99.90;;;;;;4976638;28;20470;-86
2024/03/12 02:28:38;;;;;;;46.88;18.75;;;8.90;99.90;;;;;;4976840;28;20234;-86
2024/03/12 02:31:05;;;;;;;43.38;17.80;;;8.80;99.90;;;;;;4976453;28;20625;-86
2024/03/12 02:33:32;;;;;;;43.92;17.80;;;8.80;99.90;;;;;;4975217;28;20206;-86
2024/03/12 02:35:58;;;;;;;49.42;18.80;;;8.80;99.90;;;;;;4976388;28;20168;-86
2024/03/12 02:38:26;;;;;;;45.20;19.02;;;8.80;99.90;;;;;;4976956;28;20160;-86
2024/03/12 02:40:52;;;;;;;45.97;18.98;;;8.70;99.90;;;;;;4976916;28;20187;-86
2024/03/12 02:43:18;;;;;;;44.63;17.93;;;8.70;99.90;;;;;;4976497;28;20255;-86
2024/03/12 02:45:45;;;;;;;42.50;16.97;;;8.70;99.90;;;;;;4959464;28;20466;-87
2024/03/12 02:48:11;;;;;;;50.50;19.23;;;8.70;99.90;;;;;;4978329;28;20411;-86
2024/03/12 02:50:36;;;;;;;41.97;17.37;;;8.70;99.90;;;;;;4980909;28;20206;-86
2024/03/12 02:53:02;;;;;;;38.67;17.30;;;8.70;99.90;;;;;;4963692;28;20461;-87
2024/03/12 02:55:28;;;;;;;40.60;18.45;;;8.80;99.90;;;;;;4981389;28;20183;-86
2024/03/12 02:57:54;;;;;;;51.30;17.17;;;8.80;99.90;;;;;;4981201;28;20160;-86
2024/03/12 03:00:19;;;;;;;43.20;17.77;;;8.70;99.90;;;;;;4980761;28;20589;-87
2024/03/12 03:02:45;;;;;;;36.77;15.73;;;8.80;99.90;;;;;;4979321;28;20649;-87
2024/03/12 03:05:12;;;;;;;47.08;17.88;;;8.80;99.90;;;;;;4980773;28;20168;-86
2024/03/12 03:07:42;;;;;;;38.47;16.75;;;8.70;99.90;;;;;;4980847;28;20175;-86
2024/03/12 03:10:08;;;;;;;40.90;16.50;;;8.70;99.90;;;;;;4963189;28;20199;-86
2024/03/12 03:12:35;;;;;;;35.05;14.43;;;8.70;99.90;;;;;;4963394;28;20203;-86
2024/03/12 03:15:01;;;;;;;37.17;16.20;;;8.70;99.90;;;;;;4981186;28;20247;-87
2024/03/12 03:17:27;;;;;;;39.28;16.13;;;8.70;99.90;;;;;;4979190;28;20168;-86
2024/03/12 03:19:52;;;;;;;34.87;14.30;;;8.80;99.90;;;;;;4980111;28;20173;-86
2024/03/12 03:22:18;;;;;;;35.67;15.20;;;8.70;99.90;;;;;;4979928;28;20272;-87
2024/03/12 03:24:43;;;;;;;37.27;14.17;;;8.70;99.90;;;;;;4980131;28;20682;-86
2024/03/12 03:27:09;;;;;;;34.20;14.17;;;8.70;99.90;;;;;;4979552;28;20200;-86
2024/03/12 03:29:36;;;;;;;38.50;15.53;;;8.70;99.90;;;;;;4980516;28;20187;-86
2024/03/12 03:32:06;;;;;;;38.83;16.60;;;8.70;99.90;;;;;;4980214;28;20442;-86
2024/03/12 03:34:32;;;;;;;37.88;13.75;;;8.70;99.90;;;;;;4980064;28;20163;-87
2024/03/12 03:37:00;;;;;;;33.88;14.77;;;8.70;99.90;;;;;;4979409;28;20175;-87
2024/03/12 03:39:26;;;;;;;37.83;16.50;;;8.70;99.90;;;;;;4980340;28;20163;-86
2024/03/12 03:41:53;;;;;;;37.10;14.73;;;8.70;99.90;;;;;;4979793;28;20182;-86
2024/03/12 03:44:18;;;;;;;31.65;13.73;;;8.70;99.90;;;;;;4978541;28;20171;-86
2024/03/12 03:46:44;;;;;;;30.73;12.50;;;8.80;99.90;;;;;;4979689;28;20633;-86
2024/03/12 03:49:10;;;;;;;41.15;14.77;;;8.70;99.90;;;;;;4979921;28;20542;-87
2024/03/12 03:51:36;;;;;;;41.17;15.53;;;8.60;99.90;;;;;;4962608;28;20203;-86
2024/03/12 03:54:02;;;;;;;38.00;13.27;;;8.60;99.90;;;;;;4980161;28;20214;-86
2024/03/12 03:56:29;;;;;;;37.50;15.35;;;8.60;99.90;;;;;;4978618;28;20931;-85
2024/03/12 03:59:00;;;;;;;35.30;14.85;;;8.60;99.90;;;;;;4979300;28;20183;-86
2024/03/12 04:01:29;;;;;;;37.15;12.25;;;8.60;99.90;;;;;;4978098;28;20266;-85
2024/03/12 04:03:55;;;;;;;38.80;15.23;;;8.70;99.90;;;;;;4978384;28;20183;-85
2024/03/12 04:06:22;;;;;;;38.65;13.27;;;8.60;99.90;;;;;;4979505;28;20164;-86
2024/03/12 04:08:53;;;;;;;32.80;14.10;;;8.60;99.90;;;;;;4980448;28;20251;-85
2024/03/12 04:11:22;;;;;;;41.42;15.95;;;8.60;99.90;;;;;;4979592;28;20203;-85
2024/03/12 04:13:48;;;;;;;29.90;13.45;;;8.60;99.90;;;;;;4979825;28;20649;-85
2024/03/12 04:16:14;;;;;;;35.87;13.97;;;8.60;99.90;;;;;;4980098;28;20168;-86
2024/03/12 04:18:44;;;;;;;35.17;13.85;;;8.60;99.90;;;;;;4979023;28;20407;-85
2024/03/12 04:21:11;;;;;;;35.40;12.48;;;8.60;99.90;;;;;;4979058;28;20566;-86
2024/03/12 04:23:37;;;;;;;31.48;13.38;;;8.60;99.90;;;;;;4979923;28;20168;-86
2024/03/12 04:26:03;;;;;;;26.23;11.63;;;8.50;99.90;;;;;;4979869;28;20195;-86
2024/03/12 04:28:29;;;;;;;31.27;12.32;;;8.50;99.90;;;;;;4979105;28;20479;-85
2024/03/12 04:30:55;;;;;;;32.77;13.20;;;8.50;99.90;;;;;;4979354;28;20716;-86
2024/03/12 04:33:20;;;;;;;38.27;12.40;;;8.50;99.90;;;;;;4978278;28;20415;-86
2024/03/12 04:35:46;;;;;;;30.70;11.13;;;8.60;99.90;;;;;;4978272;28;20172;-86
2024/03/12 04:38:14;;;;;;;34.45;13.02;;;8.60;99.90;;;;;;4978139;28;20160;-85
2024/03/12 04:40:41;;;;;;;31.98;12.40;;;8.50;99.90;;;;;;4977729;28;20188;-85
2024/03/12 04:43:07;;;;;;;32.55;12.45;;;8.60;99.90;;;;;;4978551;28;20653;-85
2024/03/12 04:45:32;;;;;;;32.90;11.60;;;8.50;99.90;;;;;;4978042;28;20181;-86
2024/03/12 04:47:58;;;;;;;41.40;13.83;;;8.60;99.90;;;;;;4976825;28;20179;-86
2024/03/12 04:50:24;;;;;;;29.90;13.20;;;8.50;99.90;;;;;;4976412;28;20463;-86
2024/03/12 04:52:50;;;;;;;31.77;12.40;;;8.50;99.90;;;;;;4977708;28;20242;-86
2024/03/12 04:55:16;;;;;;;27.90;12.80;;;8.50;99.90;;;;;;4960291;28;20262;-86
2024/03/12 04:57:43;;;;;;;41.97;12.85;;;8.50;99.90;;;;;;4976554;28;20641;-86
2024/03/12 05:00:18;;;;;;;36.58;12.55;;;8.50;99.90;;;;;;4976601;28;20171;-86
2024/03/12 05:02:49;;;;;;;41.40;13.95;;;8.50;99.90;;;;;;4978846;28;20538;-86
2024/03/12 05:05:17;;;;;;;35.85;14.05;;;8.40;99.90;;;;;;4976928;28;20205;-86
2024/03/12 05:07:44;;;;;;;31.73;13.38;;;8.40;99.90;;;;;;4976504;28;20176;-86
2024/03/12 05:10:11;;;;;;;41.30;12.50;;;8.40;99.90;;;;;;4976217;28;20278;-86
2024/03/12 05:12:37;;;;;;;35.67;13.57;;;8.40;99.90;;;;;;4978233;28;20648;-86
2024/03/12 05:15:04;;;;;;;41.30;13.40;;;8.40;99.90;;;;;;4961113;28;20176;-86
2024/03/12 05:17:29;;;;;;;32.63;12.13;;;8.30;99.90;;;;;;4978302;28;20171;-86
2024/03/12 05:19:55;;;;;;;33.17;12.47;;;8.30;99.90;;;;;;4978390;28;20179;-86
2024/03/12 05:22:22;;;;;;;35.10;14.07;;;8.30;99.90;;;;;;4978235;28;20216;-86
2024/03/12 05:24:47;;;;;;;32.15;12.82;;;8.30;99.90;;;;;;4978242;28;20530;-86
2024/03/12 05:27:21;;;;;;;36.77;13.30;;;8.40;99.90;;;;;;4977880;28;20172;-86
2024/03/12 05:29:52;;;;;;;36.00;13.45;;;8.40;99.90;;;;;;4976974;28;20184;-86
2024/03/12 05:32:18;;;;;;;36.90;12.50;;;8.30;99.90;;;;;;4977822;28;20218;-86
2024/03/12 05:34:52;;;;;;;34.78;13.10;;;8.30;99.90;;;;;;4977949;28;20168;-86
2024/03/12 05:37:40;;;;;;;39.00;14.15;;;8.30;99.90;;;;;;4977987;28;20219;-86
2024/03/12 05:40:16;;;;;;;35.05;14.10;;;8.40;99.90;;;;;;4976793;28;20168;-86
2024/03/12 05:48:12;;;;;;;39.00;13.85;;;8.30;99.90;;;;;;4977315;28;20235;-85
2024/03/12 05:50:41;;;;;;;38.00;13.60;;;8.40;99.90;;;;;;4976690;28;20716;-86
2024/03/12 05:53:08;;;;;;;36.33;12.77;;;8.40;99.90;;;;;;4977073;28;20427;-85
2024/03/12 05:55:34;;;;;;;32.00;12.93;;;8.40;99.90;;;;;;4976725;28;20199;-86
2024/03/12 05:58:00;;;;;;;38.80;12.38;;;8.40;99.90;;;;;;4976755;28;20243;-86
2024/03/12 06:00:26;;;;;;;37.15;14.52;;;8.30;99.90;;;;;;4975432;28;20228;-86
2024/03/12 06:02:53;;;;;;;37.92;11.25;;;8.40;99.90;;;;;;4975413;28;20168;-86
2024/03/12 06:05:19;;;;;;;41.33;13.88;;;8.40;99.90;;;;;;4976651;28;20168;-86
2024/03/12 06:07:45;;;;;;;32.57;12.70;;;8.30;99.90;;;;;;4976113;28;20167;-87
2024/03/12 06:10:11;;;;;;;32.73;13.43;;;8.40;99.90;;;;;;4976538;28;20455;-86
2024/03/12 06:12:40;;;;;;;36.17;14.00;;;8.40;99.90;;;;;;4974971;28;20499;-86
2024/03/12 06:15:06;;;;;;;33.17;12.80;;;8.30;99.90;;;;;;4974860;28;20174;-86
2024/03/12 06:17:32;;;;;;;39.07;15.37;;;8.30;99.90;;;;;;4974890;28;20633;-87
2024/03/12 06:19:58;;;;;;;33.45;11.45;;;8.30;99.90;;;;;;4976168;28;20407;-86
2024/03/12 06:22:24;;;;;;;34.22;12.55;;;8.30;99.90;;;;;;4974085;28;20259;-86
2024/03/12 06:24:50;;;;;;;38.53;13.55;;;8.30;99.90;;;;;;4974836;28;20196;-86
2024/03/12 06:27:18;;;;;;;30.40;12.30;;;8.30;99.90;;;;;;4976185;28;20175;-87
2024/03/12 06:29:49;;;;;;;32.28;12.98;;;8.30;99.90;;;;;;4974683;28;20191;-85
2024/03/12 06:32:19;;;;;;;38.28;13.18;;;8.30;99.90;;;;;;4977933;28;20207;-85
2024/03/12 06:34:45;;;;;;;38.25;14.23;;;8.30;99.90;;;;;;4977484;28;20168;-85
2024/03/12 06:37:11;;;;;;;41.38;13.32;;;8.30;99.90;;;;;;4978306;28;20213;-86
2024/03/12 06:39:40;;;;;;;41.60;14.20;;;8.30;99.90;;;;;;4979047;28;20167;-86
2024/03/12 06:42:07;;;;;;;32.13;12.98;;;8.20;99.90;;;;;;4978953;28;20187;-86
2024/03/12 06:44:40;;;;;;;37.22;13.45;;;8.30;99.90;;;;;;4979674;28;20164;-86
2024/03/12 06:47:06;;;;;;;37.83;13.07;;;8.30;99.90;;;;;;4978067;28;20168;-86
2024/03/12 06:49:33;;;;;;;37.90;13.02;;;8.40;99.90;;;;;;4978074;28;20164;-86
2024/03/12 06:52:00;;;;;;;37.72;11.75;;;8.40;99.90;;;;;;4975599;28;20238;-86
2024/03/12 06:54:26;;;;;;;31.25;11.18;;;8.40;99.90;;;;;;4975944;28;20182;-85
2024/03/12 06:56:53;;;;;;;34.40;12.77;;;8.30;99.90;;;;;;4977429;28;20672;-87
2024/03/12 06:59:21;;;;;;;37.70;13.85;;;8.30;99.90;;;;;;4977051;28;20202;-85
2024/03/12 07:01:53;;;;;;;36.50;13.10;;;8.30;99.90;;;;;;4977508;28;20191;-86
2024/03/12 07:04:23;;;;;;;31.55;13.48;;;8.30;99.90;;;;;;4976828;28;20156;-85
2024/03/12 07:06:50;;;;;;;39.42;13.20;;;8.30;99.90;;;;;;4974972;28;20172;-85
2024/03/12 07:09:26;;;;;;;38.45;14.30;;;8.30;99.90;;;;;;4976521;28;20168;-86
2024/03/12 07:11:57;;;;;;;41.72;16.10;;;8.30;99.90;;;;;;4976668;28;20281;-86
2024/03/12 07:14:32;;;;;;;36.78;13.75;;;8.30;99.90;;;;;;4976450;28;20155;-86
2024/03/12 07:16:58;;;;;;;36.50;12.68;;;8.30;99.90;;;;;;4976134;28;20155;-86
2024/03/12 07:19:23;;;;;;;40.20;14.03;;;8.20;99.90;;;;;;4975772;28;20187;-86
2024/03/12 07:21:50;;;;;;;40.10;14.63;;;8.20;99.90;;;;;;4976334;28;20434;-85
2024/03/12 07:24:15;;;;;;;31.25;12.93;;;8.20;99.90;;;;;;4975700;28;20288;-85
2024/03/12 07:26:45;;;;;;;37.57;14.27;;;8.20;99.90;;;;;;4976661;28;20171;-86
2024/03/12 07:29:11;;;;;;;34.88;13.80;;;8.10;99.90;;;;;;4975035;28;20187;-86
2024/03/12 07:31:37;;;;;;;38.43;14.33;;;8.20;99.90;;;;;;4974743;28;20258;-86
2024/03/12 07:34:05;;;;;;;35.87;14.10;;;8.20;99.90;;;;;;4976152;28;20572;-86
2024/03/12 07:36:33;;;;;;;37.65;14.48;;;8.20;99.90;;;;;;4979421;28;20164;-86
2024/03/12 07:38:59;;;;;;;30.98;13.23;;;8.20;99.90;;;;;;4978926;28;20159;-86
2024/03/12 07:41:26;;;;;;;40.00;14.88;;;8.30;99.90;;;;;;4978870;28;20191;-86
2024/03/12 07:43:52;;;;;;;41.95;14.73;;;8.30;99.90;;;;;;4979346;28;20250;-86
2024/03/12 07:46:17;;;;;;;39.20;13.97;;;8.30;99.90;;;;;;4978019;28;20176;-86
2024/03/12 07:48:44;;;;;;;37.70;15.47;;;8.30;99.90;;;;;;4979067;28;20459;-86
2024/03/12 07:51:10;;;;;;;37.65;13.80;;;8.30;99.90;;;;;;4979160;28;20751;-86
2024/03/12 07:53:36;;;;;;;35.47;13.75;;;8.40;99.90;;;;;;4979006;28;20604;-86
2024/03/12 07:56:06;;;;;;;36.63;14.55;;;8.40;99.90;;;;;;4979259;28;20565;-86
2024/03/12 07:58:33;;;;;;;39.92;14.20;;;8.40;99.90;;;;;;4978500;28;20164;-86
2024/03/12 08:01:01;;;;;;;39.60;14.80;;;8.40;99.90;;;;;;4979041;28;20184;-86
2024/03/12 08:03:27;;;;;;;37.30;13.90;;;8.40;99.90;;;;;;4978376;28;20510;-86
2024/03/12 08:06:16;;;;;;;44.13;15.18;;;8.50;99.90;;;;;;4978848;28;20537;-86
2024/03/12 08:08:42;;;;;;;37.08;13.65;;;8.50;99.90;;;;;;4979902;28;20238;-87
2024/03/12 08:11:08;;;;;;;39.10;12.53;;;8.50;99.90;;;;;;4980772;28;20203;-86
2024/03/12 08:13:34;;;;;;;34.87;14.23;;;8.50;99.90;;;;;;4978886;28;20449;-86
2024/03/12 08:16:00;;;;;;;36.00;13.45;;;8.60;99.90;;;;;;4980048;28;20403;-87
2024/03/12 08:18:26;;;;;;;35.17;13.73;;;8.60;99.90;;;;;;4962745;28;20652;-87
2024/03/12 08:20:52;;;;;;;42.87;14.07;;;8.60;99.90;;;;;;4979296;28;20430;-87
2024/03/12 08:23:19;;;;;;;41.33;13.40;;;8.60;99.90;;;;;;4978941;28;20168;-87
2024/03/12 08:25:46;;;;;;;36.22;12.95;;;8.70;99.90;;;;;;4978502;28;20427;-86
2024/03/12 08:28:12;;;;;;;34.40;13.43;;;8.70;99.90;;;;;;4979893;28;20175;-87
2024/03/12 08:30:37;;;;;;;36.23;15.60;;;8.60;99.90;;;;;;4978919;28;20210;-87
2024/03/12 08:33:04;;;;;;;31.37;12.93;;;8.60;99.90;;;;;;4981093;28;20408;-86
2024/03/12 08:35:29;;;;;;;36.13;14.43;;;8.60;99.90;;;;;;4980977;28;20167;-86
2024/03/12 08:37:55;;;;;;;37.07;13.00;;;8.70;99.90;;;;;;4980104;28;20160;-87
2024/03/12 08:40:21;;;;;;;34.60;12.20;;;8.70;99.90;;;;;;4980637;28;20514;-86
2024/03/12 08:42:47;;;;;;;39.73;14.37;;;8.70;99.90;;;;;;4979274;28;20172;-86
2024/03/12 08:45:14;;;;;;;39.78;14.35;;;8.70;99.90;;;;;;4979790;28;20172;-87
2024/03/12 08:47:42;;;;;;;36.30;13.95;;;8.80;99.90;;;;;;4979770;28;20511;-86
2024/03/12 08:50:08;;;;;;;31.52;11.70;;;8.80;99.90;;;;;;4978822;28;20247;-86
2024/03/12 08:52:35;;;;;;;32.28;12.23;;;8.80;99.90;;;;;;4980939;28;20222;-86
2024/03/12 08:55:01;;;;;;;37.67;13.90;;;8.90;99.90;;;;;;4979883;28;20196;-86
2024/03/12 08:57:27;;;;;;;35.65;12.10;;;8.90;99.90;;;;;;4981297;28;20171;-86
2024/03/12 08:59:53;;;;;;;30.17;11.10;;;8.80;99.90;;;;;;4981308;28;20164;-87
2024/03/12 09:02:18;;;;;;;33.43;11.57;;;8.80;99.90;;;;;;4963659;28;20199;-87
2024/03/12 09:04:44;;;;;;;33.73;10.57;;;8.80;99.90;;;;;;4981108;28;20167;-86
2024/03/12 09:07:10;;;;;;;27.47;11.77;;;8.80;99.90;;;;;;4981015;28;20542;-86
2024/03/12 09:09:37;;;;;;;29.08;11.25;;;8.80;99.90;;;;;;4979659;28;20406;-87
2024/03/12 09:12:03;;;;;;;30.30;11.95;;;8.80;99.90;;;;;;4980754;28;20195;-87
2024/03/12 09:14:30;;;;;;;31.73;11.93;;;8.90;99.90;;;;;;4982309;28;20160;-86
2024/03/12 09:16:57;;;;;;;32.90;10.70;;;8.90;99.90;;;;;;4980441;28;20164;-86
2024/03/12 09:19:24;;;;;;;32.03;11.18;;;8.90;99.90;;;;;;4978643;28;20661;-87
2024/03/12 09:21:50;;;;;;;25.23;9.43;;;8.90;99.90;;;;;;4962601;28;20294;-87
2024/03/12 09:24:18;;;;;;;29.30;10.20;;;8.90;99.90;;;;;;4979440;28;20192;-87
2024/03/12 09:26:44;;;;;;;30.95;12.10;;;9.00;99.90;;;;;;4980301;28;20490;-86
2024/03/12 09:29:12;;;;;;;28.97;10.17;;;9.00;99.90;;;;;;4981817;28;20227;-87
2024/03/12 09:31:41;;;;;;;28.63;9.70;;;9.10;99.90;;;;;;4981759;28;20467;-86
2024/03/12 09:34:08;;;;;;;35.42;10.73;;;9.20;99.90;;;;;;4978922;28;20192;-86
2024/03/12 09:36:33;;;;;;;27.33;10.52;;;9.20;99.90;;;;;;4980399;28;20172;-86
2024/03/12 09:38:59;;;;;;;25.20;10.00;;;9.30;99.90;;;;;;4962336;28;20183;-86
2024/03/12 09:41:26;;;;;;;29.33;10.77;;;9.40;99.90;;;;;;4978255;28;20191;-86
2024/03/12 09:43:53;;;;;;;28.85;9.93;;;9.50;99.90;;;;;;4981610;28;20231;-86
2024/03/12 09:46:21;;;;;;;30.05;11.05;;;9.50;99.90;;;;;;4979780;28;20279;-87
2024/03/12 09:48:49;;;;;;;32.20;11.43;;;9.60;99.90;;;;;;4982929;28;20244;-87
2024/03/12 09:51:16;;;;;;;33.10;10.90;;;9.70;99.90;;;;;;4981814;28;20546;-86
2024/03/12 09:53:46;;;;;;;30.67;12.18;;;9.70;99.90;;;;;;4979407;28;20172;-86
2024/03/12 09:56:15;;;;;;;32.33;11.38;;;9.70;99.90;;;;;;4962799;28;20168;-87
2024/03/12 09:58:41;;;;;;;29.58;13.48;;;9.80;99.90;;;;;;4980629;28;20160;-86
2024/03/12 10:01:07;;;;;;;32.55;12.48;;;9.80;99.90;;;;;;4980005;28;20191;-86
2024/03/12 10:03:35;;;;;;;32.43;11.30;;;9.70;99.90;;;;;;4981275;28;20170;-87
2024/03/12 10:06:02;;;;;;;33.10;12.50;;;9.70;99.90;;;;;;4980490;28;20195;-86
2024/03/12 10:08:28;;;;;;;38.28;15.07;;;9.70;99.90;;;;;;4979955;28;20168;-85
2024/03/12 10:10:55;;;;;;;35.70;13.02;;;9.80;99.90;;;;;;4976805;28;20328;-86
2024/03/12 10:13:21;;;;;;;33.40;15.13;;;9.90;99.90;;;;;;4981148;28;20171;-86
2024/03/12 10:15:51;;;;;;;34.20;12.63;;;9.90;99.90;;;;;;4979228;28;20164;-86
2024/03/12 10:18:18;;;;;;;29.67;11.75;;;9.90;99.90;;;;;;4980319;28;20427;-86
2024/03/12 10:20:54;;;;;;;40.28;14.32;;;9.90;99.90;;;;;;4980335;28;20677;-86
2024/03/12 10:23:21;;;;;;;40.17;14.00;;;9.90;99.90;;;;;;4980668;28;20163;-86
2024/03/12 10:25:50;;;;;;;29.17;12.23;;;9.80;99.90;;;;;;4979619;28;20183;-86
2024/03/12 10:28:22;;;;;;;36.75;13.57;;;9.80;99.90;;;;;;4981312;28;20215;-86
2024/03/12 10:30:47;;;;;;;40.83;14.18;;;9.80;99.90;;;;;;4979351;28;20227;-86
2024/03/12 10:33:17;;;;;;;33.13;13.77;;;9.70;99.90;;;;;;4979829;28;20164;-86
2024/03/12 10:35:44;;;;;;;37.40;13.70;;;9.70;99.90;;;;;;4964340;28;20179;-85
2024/03/12 10:38:14;;;;;;;34.58;12.90;;;9.70;99.90;;;;;;4982215;28;20164;-87
2024/03/12 10:40:41;;;;;;;35.83;13.52;;;9.80;99.90;;;;;;4980133;28;20184;-87
2024/03/12 10:43:08;;;;;;;33.22;12.43;;;9.90;99.90;;;;;;4977723;28;20178;-86
2024/03/12 10:45:34;;;;;;;34.33;14.02;;;9.90;99.90;;;;;;4978285;28;20186;-86
2024/03/12 10:48:03;;;;;;;36.35;15.70;;;10.00;99.90;;;;;;4977035;28;20199;-86
2024/03/12 10:50:34;;;;;;;37.47;13.77;;;10.10;99.90;;;;;;4977198;28;20211;-86
2024/03/12 10:53:01;;;;;;;32.83;13.55;;;10.10;99.90;;;;;;4977953;28;20168;-87
2024/03/12 10:55:32;;;;;;;32.17;12.93;;;10.10;99.90;;;;;;4978206;28;20160;-86
2024/03/12 10:58:02;;;;;;;37.08;14.52;;;10.20;99.90;;;;;;4977854;28;20602;-87
2024/03/12 11:00:30;;;;;;;45.45;15.40;;;10.20;99.90;;;;;;4976947;28;20222;-85
2024/03/12 11:02:56;;;;;;;36.40;14.52;;;10.20;99.90;;;;;;4977941;28;20241;-85
2024/03/12 11:05:25;;;;;;;37.40;14.70;;;10.20;99.90;;;;;;4978452;28;20203;-86
2024/03/12 11:07:52;;;;;;;37.40;15.75;;;10.30;99.90;;;;;;4977978;28;20571;-86
2024/03/12 11:10:19;;;;;;;38.25;15.75;;;10.30;99.90;;;;;;4963587;28;20266;-87
2024/03/12 11:12:48;;;;;;;33.75;15.23;;;10.30;99.90;;;;;;4983148;28;20203;-86
2024/03/12 11:15:14;;;;;;;35.55;15.50;;;10.20;99.90;;;;;;4983010;28;20168;-86
2024/03/12 11:17:51;;;;;;;37.67;14.60;;;10.20;99.90;;;;;;4982627;28;20168;-86
2024/03/12 11:20:22;;;;;;;36.45;13.85;;;10.10;99.90;;;;;;4982425;28;20169;-86
2024/03/12 11:22:52;;;;;;;39.50;15.32;;;10.00;99.90;;;;;;4979454;28;20160;-85
2024/03/12 11:25:38;;;;;;;37.33;14.85;;;10.00;99.90;;;;;;4981053;28;20514;-86
2024/03/12 11:28:24;;;;;;;36.65;15.18;;;10.00;99.90;;;;;;4981888;28;20184;-86
2024/03/12 11:31:04;;;;;;;36.60;15.13;;;10.00;99.90;;;;;;4980594;28;20267;-86
2024/03/12 11:33:41;;;;;;;30.30;13.15;;;10.10;99.90;;;;;;4982952;28;20211;-86
2024/03/12 11:36:11;;;;;;;43.42;15.82;;;10.20;99.90;;;;;;4980716;28;20172;-86
2024/03/12 11:38:37;;;;;;;39.72;16.27;;;10.30;99.90;;;;;;4981794;28;20223;-87
2024/03/12 11:41:03;;;;;;;37.58;15.68;;;10.30;99.90;;;;;;4981390;28;20188;-86
2024/03/12 11:43:40;;;;;;;40.47;14.70;;;10.30;99.90;;;;;;4981599;28;20172;-86
2024/03/12 11:46:20;;;;;;;32.25;14.82;;;10.40;99.90;;;;;;4981326;28;20637;-85
2024/03/12 11:48:46;;;;;;;36.67;14.13;;;10.60;99.90;;;;;;4979779;28;20163;-85
2024/03/12 11:51:13;;;;;;;32.72;14.23;;;10.70;99.90;;;;;;4981215;28;20631;-86
2024/03/12 11:53:41;;;;;;;38.83;13.43;;;10.80;99.90;;;;;;4983958;28;20246;-87
2024/03/12 11:56:11;;;;;;;38.75;14.32;;;10.90;99.90;;;;;;4983433;28;20187;-86
2024/03/12 11:58:46;;;;;;;37.47;15.98;;;11.10;99.90;;;;;;4981418;28;20172;-86
2024/03/12 12:01:22;;;;;;;36.58;13.43;;;11.30;99.90;;;;;;4981382;28;20249;-86
2024/03/12 12:03:59;;;;;;;33.17;11.55;;;11.30;99.90;;;;;;4982367;28;20175;-86
2024/03/12 12:06:25;;;;;;;30.40;13.07;;;11.30;99.90;;;;;;4981194;28;20261;-86
2024/03/12 12:08:51;;;;;;;33.78;13.40;;;11.40;99.90;;;;;;4982932;28;20183;-87
2024/03/12 12:11:17;;;;;;;34.43;13.67;;;11.40;99.90;;;;;;4982788;28;20577;-86
2024/03/12 12:13:46;;;;;;;37.78;14.23;;;11.40;99.90;;;;;;4983144;28;20210;-86
2024/03/12 12:16:17;;;;;;;32.50;12.68;;;11.50;99.90;;;;;;4965822;28;20272;-86
2024/03/12 12:18:44;;;;;;;40.55;15.00;;;11.50;96.10;;;;;;4983375;28;20518;-87
2024/03/12 12:21:17;;;;;;;32.92;13.70;;;11.70;96.80;;;;;;4982034;28;20561;-86
2024/03/12 12:23:45;;;;;;;40.95;12.85;;;11.80;68.30;;;;;;4982991;28;20230;-86
2024/03/12 12:26:20;;;;;;;39.47;15.30;;;12.00;44.20;;;;;;4966769;28;20176;-87
2024/03/12 12:28:48;;;;;;;43.50;14.27;;;12.30;36.40;;;;;;4984244;28;20553;-87
2024/03/12 12:31:19;;;;;;;36.35;13.50;;;12.50;1.00;;;;;;4982656;28;20261;-87
2024/03/12 12:33:50;;;;;;;36.63;16.38;;;12.70;1.00;;;;;;4984640;28;20153;-87
2024/03/12 12:36:19;;;;;;;33.42;14.93;;;12.90;1.00;;;;;;4984719;28;20156;-87
2024/03/12 12:38:45;;;;;;;36.03;12.75;;;12.80;1.00;;;;;;4985603;28;20303;-87
2024/03/12 12:41:11;;;;;;;31.20;12.50;;;12.40;1.00;;;;;;4984826;28;20188;-87
2024/03/12 12:43:42;;;;;;;34.10;13.85;;;12.60;1.00;;;;;;4983692;28;20648;-87